Time;durP1;ratioP1;P1;durP2;ratioP2;P2;SDS_P1;SDS_P2;PMS_P1;PMS_P2;Temp;Humidity;BMP_temperature;BMP_pressure;BME280_temperature;BME280_humidity;BME280_pressure;Samples;Min_cycle;Max_cycle;Signal;HPM_P1;HPM_P2
2021/11/06 00:00:40;;;;;;;1999.90;999.90;;;8.40;99.90;;;;;;5052605;28;20163;-72
2021/11/06 00:03:08;;;;;;;1999.90;999.90;;;8.30;99.90;;;;;;5052312;28;20410;-71
2021/11/06 00:05:35;;;;;;;1999.90;999.90;;;8.30;99.90;;;;;;5052444;28;20399;-72
2021/11/06 00:08:00;;;;;;;1999.90;999.90;;;8.30;99.90;;;;;;5052526;28;20453;-73
2021/11/06 00:10:26;;;;;;;1999.90;999.90;;;8.20;99.90;;;;;;5052367;28;20945;-73
2021/11/06 00:12:52;;;;;;;1999.90;999.90;;;8.20;99.90;;;;;;5052115;28;20264;-73
2021/11/06 00:15:18;;;;;;;1999.90;999.90;;;8.20;99.90;;;;;;5052457;28;20398;-73
2021/11/06 00:17:44;;;;;;;1999.90;999.90;;;8.20;99.90;;;;;;5052313;28;20171;-73
2021/11/06 00:20:11;;;;;;;1999.90;999.90;;;8.20;99.90;;;;;;5052228;28;20246;-73
2021/11/06 00:22:37;;;;;;;1999.90;999.90;;;8.10;99.90;;;;;;5051908;28;20430;-73
2021/11/06 00:25:05;;;;;;;1999.90;999.90;;;8.10;99.90;;;;;;5052301;28;20467;-72
2021/11/06 00:27:32;;;;;;;1999.90;999.90;;;8.10;99.90;;;;;;5052119;28;20406;-73
2021/11/06 00:29:58;;;;;;;1999.90;999.90;;;8.10;99.90;;;;;;5052181;28;20421;-73
2021/11/06 00:32:23;;;;;;;1999.90;999.90;;;8.00;99.90;;;;;;5051685;28;20450;-73
2021/11/06 00:34:49;;;;;;;1999.90;999.90;;;8.00;99.90;;;;;;5052038;28;20168;-73
2021/11/06 00:37:14;;;;;;;1999.90;999.90;;;8.00;99.90;;;;;;5052053;28;20225;-73
2021/11/06 00:39:40;;;;;;;1999.90;999.90;;;7.90;99.90;;;;;;5052002;28;20155;-73
2021/11/06 00:42:06;;;;;;;1999.90;999.90;;;8.00;99.90;;;;;;5051624;28;20283;-73
2021/11/06 00:44:31;;;;;;;1999.90;999.90;;;7.90;99.90;;;;;;5051962;28;20246;-73
2021/11/06 00:46:57;;;;;;;1999.90;999.90;;;7.90;99.90;;;;;;5051803;28;20295;-72
2021/11/06 00:49:23;;;;;;;1999.90;999.90;;;7.90;99.90;;;;;;5051916;28;20233;-72
2021/11/06 00:51:49;;;;;;;1999.90;999.90;;;7.90;99.90;;;;;;5051403;28;20469;-73
2021/11/06 00:54:15;;;;;;;1999.90;999.90;;;7.80;99.90;;;;;;5051741;28;20820;-73
2021/11/06 00:56:41;;;;;;;1999.90;999.90;;;7.80;99.90;;;;;;5051831;28;20402;-73
2021/11/06 00:59:06;;;;;;;1999.90;999.90;;;7.80;99.90;;;;;;5051803;28;20213;-73
2021/11/06 01:01:32;;;;;;;1999.90;999.90;;;7.80;99.90;;;;;;5051498;28;20245;-73
2021/11/06 01:03:58;;;;;;;1999.90;999.90;;;7.70;99.90;;;;;;5051668;28;20159;-73
2021/11/06 01:06:24;;;;;;;1999.90;999.90;;;7.80;99.90;;;;;;5051805;28;20762;-72
2021/11/06 01:08:50;;;;;;;1999.90;999.90;;;7.70;99.90;;;;;;5051718;28;20398;-72
2021/11/06 01:11:16;;;;;;;1999.90;999.90;;;7.70;99.90;;;;;;5051266;28;20621;-72
2021/11/06 01:13:42;;;;;;;1999.90;999.90;;;7.70;99.90;;;;;;5051657;28;20395;-73
2021/11/06 01:16:08;;;;;;;1999.90;999.90;;;7.60;99.90;;;;;;5051550;28;20428;-74
2021/11/06 01:18:34;;;;;;;1999.90;999.90;;;7.60;99.90;;;;;;5051552;28;20164;-73
2021/11/06 01:21:00;;;;;;;1999.90;999.90;;;7.70;99.90;;;;;;5051485;28;20513;-73
2021/11/06 01:23:26;;;;;;;1999.90;999.90;;;7.60;99.90;;;;;;5051281;28;20406;-73
2021/11/06 01:25:51;;;;;;;1999.90;999.90;;;7.50;99.90;;;;;;5051539;28;20676;-73
2021/11/06 01:28:17;;;;;;;1999.90;999.90;;;7.50;99.90;;;;;;5051605;28;20394;-74
2021/11/06 01:30:43;;;;;;;1999.90;999.90;;;7.50;99.90;;;;;;5051523;28;20171;-73
2021/11/06 01:33:08;;;;;;;1999.90;999.90;;;7.50;99.90;;;;;;5051040;28;20200;-73
2021/11/06 01:35:34;;;;;;;1999.90;999.90;;;7.50;99.90;;;;;;5051443;28;20675;-72
2021/11/06 01:38:00;;;;;;;1999.90;999.90;;;7.50;99.90;;;;;;5051492;28;20719;-72
2021/11/06 01:40:27;;;;;;;1999.90;999.90;;;7.50;99.90;;;;;;5051483;28;20172;-71
2021/11/06 01:42:53;;;;;;;1999.90;999.90;;;7.50;99.90;;;;;;5051128;28;20417;-72
2021/11/06 01:45:21;;;;;;;1999.90;999.90;;;7.50;99.90;;;;;;5051375;28;20406;-71
2021/11/06 01:47:47;;;;;;;1999.90;999.90;;;7.50;99.90;;;;;;5051344;28;20488;-72
2021/11/06 01:50:14;;;;;;;1999.90;999.90;;;7.50;99.90;;;;;;5051409;28;20410;-71
2021/11/06 01:52:40;;;;;;;1999.90;999.90;;;7.40;99.90;;;;;;5050760;28;20466;-72
2021/11/06 01:55:07;;;;;;;1999.90;999.90;;;7.40;99.90;;;;;;5051275;28;20418;-71
2021/11/06 01:57:34;;;;;;;1999.90;999.90;;;7.40;99.90;;;;;;5051293;28;20168;-72
2021/11/06 02:00:00;;;;;;;1999.90;999.90;;;7.40;99.90;;;;;;5053665;28;20407;-72
2021/11/06 02:02:26;;;;;;;1999.90;999.90;;;7.40;99.90;;;;;;5054474;28;20426;-71
2021/11/06 02:04:52;;;;;;;1999.90;999.90;;;7.30;99.90;;;;;;5054857;28;20475;-71
2021/11/06 02:07:18;;;;;;;1999.90;999.90;;;7.30;99.90;;;;;;5054788;28;20409;-72
2021/11/06 02:09:44;;;;;;;1999.90;999.90;;;7.30;99.90;;;;;;5054723;28;20219;-72
2021/11/06 02:12:10;;;;;;;1999.90;999.90;;;7.30;99.90;;;;;;5054184;28;20450;-71
2021/11/06 02:14:37;;;;;;;1999.90;999.90;;;7.30;99.90;;;;;;5054659;28;20164;-72
2021/11/06 02:17:03;;;;;;;1999.90;999.90;;;7.30;99.90;;;;;;5054582;28;20180;-71
2021/11/06 02:19:31;;;;;;;1999.90;999.90;;;7.30;99.90;;;;;;5054551;28;20441;-72
2021/11/06 02:21:58;;;;;;;1999.90;999.90;;;7.30;99.90;;;;;;5054210;28;20417;-73
2021/11/06 02:24:25;;;;;;;1999.90;999.90;;;7.30;99.90;;;;;;5054349;28;20406;-73
2021/11/06 02:26:51;;;;;;;1999.90;999.90;;;7.20;99.90;;;;;;5054464;28;20902;-74
2021/11/06 02:29:17;;;;;;;1999.90;999.90;;;7.30;99.90;;;;;;5054252;28;20399;-73
2021/11/06 02:31:43;;;;;;;1999.90;999.90;;;7.30;99.90;;;;;;5053928;28;20454;-74
2021/11/06 02:34:10;;;;;;;1999.90;999.90;;;7.20;99.90;;;;;;5054249;28;20747;-73
2021/11/06 02:36:36;;;;;;;1999.90;999.90;;;7.20;99.90;;;;;;5054225;28;20413;-73
2021/11/06 02:39:03;;;;;;;1999.90;999.90;;;7.20;99.90;;;;;;5054191;28;20895;-73
2021/11/06 02:41:29;;;;;;;1999.90;999.90;;;7.10;99.90;;;;;;5053778;28;20430;-73
2021/11/06 02:43:55;;;;;;;1999.90;999.90;;;7.10;99.90;;;;;;5054086;28;20402;-73
2021/11/06 02:46:21;;;;;;;1999.90;999.90;;;7.20;99.90;;;;;;5054041;28;20483;-73
2021/11/06 02:48:46;;;;;;;1999.90;999.90;;;7.10;99.90;;;;;;5053970;28;20919;-73
2021/11/06 02:51:14;;;;;;;1999.90;999.90;;;7.00;99.90;;;;;;5053644;28;20207;-73
2021/11/06 02:53:40;;;;;;;1999.90;999.90;;;7.10;99.90;;;;;;5053718;28;20684;-74
2021/11/06 02:56:05;;;;;;;1999.90;999.90;;;7.10;99.90;;;;;;5053876;28;20438;-74
2021/11/06 02:58:31;;;;;;;1999.90;999.90;;;7.10;99.90;;;;;;5053755;28;20164;-73
2021/11/06 03:00:57;;;;;;;1999.90;999.90;;;7.10;99.90;;;;;;5053708;28;20646;-74
2021/11/06 03:03:23;;;;;;;1999.90;999.90;;;7.00;99.90;;;;;;5053628;28;20548;-73
2021/11/06 03:05:49;;;;;;;1999.90;999.90;;;7.10;99.90;;;;;;5053677;28;20410;-73
2021/11/06 03:08:14;;;;;;;1999.90;999.90;;;7.00;99.90;;;;;;5053565;28;20168;-73
2021/11/06 03:10:40;;;;;;;1999.90;999.90;;;7.00;99.90;;;;;;5053509;28;20174;-74
2021/11/06 03:13:06;;;;;;;1999.90;999.90;;;7.00;99.90;;;;;;5053176;28;20556;-74
2021/11/06 03:15:32;;;;;;;1999.90;999.90;;;7.00;99.90;;;;;;5053412;28;20580;-73
2021/11/06 03:17:57;;;;;;;1999.90;999.90;;;7.00;99.90;;;;;;5053498;28;20490;-73
2021/11/06 03:20:24;;;;;;;1999.90;999.90;;;7.10;99.90;;;;;;5053432;28;20613;-73
2021/11/06 03:22:51;;;;;;;1999.90;999.90;;;7.10;99.90;;;;;;5053153;28;20221;-73
2021/11/06 03:25:17;;;;;;;1999.90;999.90;;;7.10;99.90;;;;;;5053290;28;20406;-73
2021/11/06 03:27:43;;;;;;;1999.90;999.90;;;7.10;99.90;;;;;;5053232;28;20908;-73
2021/11/06 03:30:10;;;;;;;1999.90;999.90;;;7.10;99.90;;;;;;5053302;28;20250;-74
2021/11/06 03:32:37;;;;;;;1999.90;999.90;;;7.00;99.90;;;;;;5052732;28;20276;-73
2021/11/06 03:35:04;;;;;;;1999.90;999.90;;;7.00;99.90;;;;;;5053084;28;20406;-74
2021/11/06 03:37:29;;;;;;;1999.90;999.90;;;7.00;99.90;;;;;;5053006;28;20394;-73
2021/11/06 03:39:55;;;;;;;1999.90;999.90;;;7.00;99.90;;;;;;5053062;28;20405;-72
2021/11/06 03:42:21;;;;;;;1999.90;999.90;;;7.00;99.90;;;;;;5052571;28;20191;-74
2021/11/06 03:44:46;;;;;;;1999.90;999.90;;;7.00;99.90;;;;;;5053031;28;20247;-74
2021/11/06 03:47:12;;;;;;;1999.90;999.90;;;7.00;99.90;;;;;;5052923;28;20167;-74
2021/11/06 03:49:37;;;;;;;1999.90;999.90;;;7.00;99.90;;;;;;5052856;28;20297;-73
2021/11/06 03:52:03;;;;;;;1999.90;999.90;;;6.90;99.90;;;;;;5052240;28;20206;-73
2021/11/06 03:54:29;;;;;;;1999.90;999.90;;;7.00;99.90;;;;;;5052744;28;20242;-73
2021/11/06 03:56:54;;;;;;;1999.90;999.90;;;6.90;99.90;;;;;;5052743;28;20410;-74
2021/11/06 03:59:20;;;;;;;1999.90;999.90;;;7.00;99.90;;;;;;5052549;28;20675;-73
2021/11/06 04:01:46;;;;;;;1999.90;999.90;;;7.00;99.90;;;;;;5052307;28;20198;-73
2021/11/06 04:04:11;;;;;;;1999.90;999.90;;;6.90;99.90;;;;;;5052555;28;20178;-73
2021/11/06 04:06:37;;;;;;;1999.90;999.90;;;6.90;99.90;;;;;;5052483;28;20233;-73
2021/11/06 04:09:05;;;;;;;1999.90;999.90;;;6.90;99.90;;;;;;5052511;28;20409;-73
2021/11/06 04:11:31;;;;;;;1999.90;999.90;;;6.90;99.90;;;;;;5052285;28;20211;-73
2021/11/06 04:13:56;;;;;;;1999.90;999.90;;;6.90;99.90;;;;;;5052262;28;20481;-73
2021/11/06 04:16:22;;;;;;;1999.90;999.90;;;6.90;99.90;;;;;;5052371;28;20564;-72
2021/11/06 04:18:48;;;;;;;1999.90;999.90;;;6.90;99.90;;;;;;5052788;28;20223;-70
2021/11/06 04:21:13;;;;;;;1999.90;999.90;;;6.90;99.90;;;;;;5052105;28;20183;-70
2021/11/06 04:23:39;;;;;;;1999.90;999.90;;;6.90;99.90;;;;;;5051987;28;20198;-70
2021/11/06 04:26:05;;;;;;;1999.90;999.90;;;6.80;99.90;;;;;;5052216;28;20214;-71
2021/11/06 04:28:30;;;;;;;1999.90;999.90;;;6.80;99.90;;;;;;5052254;28;20202;-71
2021/11/06 04:30:56;;;;;;;1999.90;999.90;;;6.70;99.90;;;;;;5050888;28;20211;-70
2021/11/06 04:33:22;;;;;;;1999.90;999.90;;;6.70;99.90;;;;;;5051998;28;20199;-70
2021/11/06 04:35:48;;;;;;;1999.90;999.90;;;6.70;99.90;;;;;;5052113;28;20413;-70
2021/11/06 04:38:14;;;;;;;1999.90;999.90;;;6.70;99.90;;;;;;5052117;28;20536;-71
2021/11/06 04:40:39;;;;;;;1999.90;999.90;;;6.70;99.90;;;;;;5051988;28;20679;-71
2021/11/06 04:43:05;;;;;;;1999.90;999.90;;;6.70;99.90;;;;;;5051990;28;20463;-71
2021/11/06 04:45:31;;;;;;;1999.90;999.90;;;6.70;99.90;;;;;;5051966;28;20546;-70
2021/11/06 04:47:56;;;;;;;1999.90;999.90;;;6.60;99.90;;;;;;5051956;28;20252;-70
2021/11/06 04:50:22;;;;;;;1999.90;999.90;;;6.60;99.90;;;;;;5051855;28;20164;-72
2021/11/06 04:52:48;;;;;;;1999.90;999.90;;;6.60;99.90;;;;;;5051590;28;20246;-71
2021/11/06 04:55:15;;;;;;;1999.90;999.90;;;6.70;99.90;;;;;;5051887;28;20500;-70
2021/11/06 04:57:41;;;;;;;1999.90;999.90;;;6.80;99.90;;;;;;5051908;28;20163;-70
2021/11/06 05:00:09;;;;;;;1999.90;999.90;;;6.70;99.90;;;;;;5051865;28;20409;-72
2021/11/06 05:02:36;;;;;;;1999.90;999.90;;;6.70;99.90;;;;;;5051504;28;20430;-72
2021/11/06 05:05:02;;;;;;;1999.90;999.90;;;6.70;99.90;;;;;;5052025;28;20410;-70
2021/11/06 05:07:28;;;;;;;1999.90;999.90;;;6.70;99.90;;;;;;5051761;28;20456;-70
2021/11/06 05:09:55;;;;;;;1999.90;999.90;;;6.70;99.90;;;;;;5051744;28;20406;-71
2021/11/06 05:12:21;;;;;;;1999.90;999.90;;;6.60;99.90;;;;;;5051289;28;20286;-70
2021/11/06 05:14:48;;;;;;;1999.90;999.90;;;6.70;99.90;;;;;;5051746;28;20406;-70
2021/11/06 05:17:14;;;;;;;1999.90;999.90;;;6.70;99.90;;;;;;5051671;28;20394;-72
2021/11/06 05:19:40;;;;;;;1999.90;999.90;;;6.60;99.90;;;;;;5051543;28;20406;-70
2021/11/06 05:22:07;;;;;;;1999.90;999.90;;;6.60;99.90;;;;;;5051361;28;20426;-72
2021/11/06 05:24:33;;;;;;;1999.90;999.90;;;6.50;99.90;;;;;;5051497;28;20164;-70
2021/11/06 05:26:59;;;;;;;1999.90;999.90;;;6.50;99.90;;;;;;5051597;28;20413;-70
2021/11/06 05:29:25;;;;;;;1999.90;999.90;;;6.50;99.90;;;;;;5051624;28;20172;-70
2021/11/06 05:31:50;;;;;;;1999.90;999.90;;;6.60;99.90;;;;;;5051161;28;20490;-70
2021/11/06 05:34:16;;;;;;;1999.90;999.90;;;6.60;99.90;;;;;;5052742;28;20160;-72
2021/11/06 05:36:41;;;;;;;1999.90;999.90;;;6.60;99.90;;;;;;5055416;28;20175;-70
2021/11/06 05:39:07;;;;;;;1999.90;999.90;;;6.60;99.90;;;;;;5055271;28;20175;-70
2021/11/06 05:41:33;;;;;;;1999.90;999.90;;;6.60;99.90;;;;;;5055219;28;20211;-71
2021/11/06 05:43:59;;;;;;;1999.90;999.90;;;6.60;99.90;;;;;;5054972;28;20175;-70
2021/11/06 05:46:25;;;;;;;1999.90;999.90;;;6.60;99.90;;;;;;5055194;28;20401;-71
2021/11/06 05:48:50;;;;;;;1999.90;999.90;;;6.60;99.90;;;;;;5055132;28;20163;-71
2021/11/06 05:51:16;;;;;;;1999.90;999.90;;;6.50;99.90;;;;;;5054845;28;20207;-70
2021/11/06 05:53:42;;;;;;;1999.90;999.90;;;6.50;99.90;;;;;;5054698;28;20168;-70
2021/11/06 05:56:08;;;;;;;1999.90;999.90;;;6.50;99.90;;;;;;5055094;28;20886;-70
2021/11/06 05:58:33;;;;;;;1999.90;999.90;;;6.50;99.90;;;;;;5054982;28;20433;-71
2021/11/06 06:01:00;;;;;;;1999.90;999.90;;;6.50;99.90;;;;;;5054874;28;20251;-71
2021/11/06 06:03:25;;;;;;;1999.90;999.90;;;6.50;99.90;;;;;;5054586;28;20168;-70
2021/11/06 06:05:51;;;;;;;1999.90;999.90;;;6.60;99.90;;;;;;5054888;28;20498;-70
2021/11/06 06:08:18;;;;;;;1999.90;999.90;;;6.50;99.90;;;;;;5054721;28;20410;-71
2021/11/06 06:10:44;;;;;;;1999.90;999.90;;;6.50;99.90;;;;;;5054615;28;20169;-70
2021/11/06 06:13:10;;;;;;;1999.90;999.90;;;6.50;99.90;;;;;;5054383;28;20536;-71
2021/11/06 06:15:35;;;;;;;1999.90;999.90;;;6.50;99.90;;;;;;5054578;28;20441;-70
2021/11/06 06:18:01;;;;;;;1999.90;999.90;;;6.60;99.90;;;;;;5054584;28;20430;-71
2021/11/06 06:20:27;;;;;;;1999.90;999.90;;;6.50;99.90;;;;;;5054452;28;20246;-71
2021/11/06 06:22:52;;;;;;;1999.90;999.90;;;6.50;99.90;;;;;;5054233;28;20182;-71
2021/11/06 06:25:18;;;;;;;1999.90;999.90;;;6.50;99.90;;;;;;5054466;28;20203;-71
2021/11/06 06:27:44;;;;;;;1999.90;999.90;;;6.60;99.90;;;;;;5054359;28;20195;-71
2021/11/06 06:30:12;;;;;;;1999.90;999.90;;;6.60;99.90;;;;;;5054336;28;20229;-72
2021/11/06 06:32:38;;;;;;;1999.90;999.90;;;6.60;99.90;;;;;;5053846;28;20187;-72
2021/11/06 06:35:06;;;;;;;1999.90;999.90;;;6.50;99.90;;;;;;5054269;28;20410;-71
2021/11/06 06:37:31;;;;;;;1999.90;999.90;;;6.60;99.90;;;;;;5054196;28;20406;-71
2021/11/06 06:39:57;;;;;;;1999.90;999.90;;;6.50;99.90;;;;;;5054163;28;20402;-71
2021/11/06 06:42:23;;;;;;;1999.90;999.90;;;6.60;99.90;;;;;;5053827;28;20199;-71
2021/11/06 06:44:52;;;;;;;1999.90;999.90;;;6.60;99.90;;;;;;5053761;28;20255;-74
2021/11/06 06:47:17;;;;;;;1999.90;999.90;;;6.60;99.90;;;;;;5053993;28;20414;-74
2021/11/06 06:49:45;;;;;;;1999.90;999.90;;;6.60;99.90;;;;;;5054036;28;20405;-71
2021/11/06 06:52:10;;;;;;;1999.90;999.90;;;6.60;99.90;;;;;;5053449;28;20195;-71
2021/11/06 06:54:36;;;;;;;1999.90;999.90;;;6.70;99.90;;;;;;5053921;28;20401;-72
2021/11/06 06:57:02;;;;;;;1999.90;999.90;;;6.70;99.90;;;;;;5053875;28;20239;-72
2021/11/06 06:59:32;;;;;;;1999.90;999.90;;;6.70;99.90;;;;;;5053832;28;20808;-71
2021/11/06 07:01:58;;;;;;;1999.90;999.90;;;6.70;99.90;;;;;;5053441;28;20422;-71
2021/11/06 07:04:24;;;;;;;1999.90;999.90;;;6.70;99.90;;;;;;5053709;28;20410;-71
2021/11/06 07:06:51;;;;;;;1999.90;999.90;;;6.70;99.90;;;;;;5053742;28;20467;-71
2021/11/06 07:09:17;;;;;;;1999.90;999.90;;;6.80;99.90;;;;;;5053693;28;20163;-72
2021/11/06 07:11:42;;;;;;;1999.90;999.90;;;6.80;99.90;;;;;;5053430;28;20460;-72
2021/11/06 07:14:08;;;;;;;1999.90;999.90;;;6.80;99.90;;;;;;5053191;28;20399;-71
2021/11/06 07:16:34;;;;;;;1999.90;999.90;;;6.90;99.90;;;;;;5053478;28;20175;-70
2021/11/06 07:18:59;;;;;;;1999.90;999.90;;;6.90;99.90;;;;;;5053389;28;20175;-70
2021/11/06 07:21:25;;;;;;;1999.90;999.90;;;6.90;99.90;;;;;;5053348;28;20184;-71
2021/11/06 07:23:50;;;;;;;1999.90;999.90;;;7.00;99.90;;;;;;5053155;28;20618;-72
2021/11/06 07:26:16;;;;;;;1999.90;999.90;;;7.10;99.90;;;;;;5053408;28;20168;-71
2021/11/06 07:28:42;;;;;;;1999.90;999.90;;;7.10;99.90;;;;;;5053275;28;20172;-70
2021/11/06 07:31:07;;;;;;;1999.90;999.90;;;7.20;99.90;;;;;;5053150;28;20558;-70
2021/11/06 07:33:33;;;;;;;1999.90;999.90;;;7.30;99.90;;;;;;5052752;28;20624;-72
2021/11/06 07:35:58;;;;;;;1999.90;999.90;;;7.30;99.90;;;;;;5053132;28;20543;-73
2021/11/06 07:38:24;;;;;;;1999.90;999.90;;;7.30;99.90;;;;;;5053098;28;20192;-74
2021/11/06 07:40:49;;;;;;;1999.90;999.90;;;7.40;99.90;;;;;;5053099;28;20229;-73
2021/11/06 07:43:15;;;;;;;1999.90;999.90;;;7.40;99.90;;;;;;5052698;28;20168;-73
2021/11/06 07:45:41;;;;;;;1999.90;999.90;;;7.50;99.90;;;;;;5052884;28;20539;-73
2021/11/06 07:48:07;;;;;;;1999.90;999.90;;;7.50;99.90;;;;;;5052886;28;20191;-73
2021/11/06 07:50:32;;;;;;;1999.90;999.90;;;7.60;99.90;;;;;;5052649;28;20441;-73
2021/11/06 07:52:58;;;;;;;1999.90;999.90;;;7.60;99.90;;;;;;5052302;28;20745;-73
2021/11/06 07:55:24;;;;;;;1999.90;999.90;;;7.60;99.90;;;;;;5052548;28;20533;-73
2021/11/06 07:57:49;;;;;;;1999.90;999.90;;;7.70;99.90;;;;;;5052006;28;20254;-73
2021/11/06 08:00:18;;;;;;;1999.90;999.90;;;7.70;99.90;;;;;;5052625;28;20168;-73
2021/11/06 08:02:45;;;;;;;1999.90;999.90;;;7.70;99.90;;;;;;5052242;28;20677;-72
2021/11/06 08:05:13;;;;;;;1999.90;999.90;;;7.70;99.90;;;;;;5052466;28;20757;-71
2021/11/06 08:07:40;;;;;;;1999.90;999.90;;;7.70;99.90;;;;;;5052504;28;20403;-73
2021/11/06 08:10:07;;;;;;;1999.90;999.90;;;7.80;99.90;;;;;;5052558;28;20928;-73
2021/11/06 08:12:33;;;;;;;1999.90;999.90;;;7.90;99.90;;;;;;5052067;28;20462;-73
2021/11/06 08:14:59;;;;;;;1999.90;999.90;;;8.00;99.90;;;;;;5052334;28;20417;-73
2021/11/06 08:17:25;;;;;;;1999.90;999.90;;;8.10;99.90;;;;;;5052418;28;20398;-73
2021/11/06 08:19:51;;;;;;;1999.90;999.90;;;8.10;99.90;;;;;;5052272;28;20464;-73
2021/11/06 08:22:17;;;;;;;1999.90;999.90;;;8.10;99.90;;;;;;5051917;28;20183;-73
2021/11/06 08:24:42;;;;;;;1999.90;999.90;;;8.10;99.90;;;;;;5052230;28;20667;-73
2021/11/06 08:27:08;;;;;;;1999.90;999.90;;;8.10;99.90;;;;;;5052176;28;20443;-73
2021/11/06 08:29:35;;;;;;;1999.90;999.90;;;8.10;99.90;;;;;;5049178;28;20171;-73
2021/11/06 08:32:00;;;;;;;1999.90;999.90;;;8.10;99.90;;;;;;5049063;28;20516;-73
2021/11/06 08:34:27;;;;;;;1999.90;999.90;;;8.20;99.90;;;;;;5050231;28;20807;-73
2021/11/06 08:36:54;;;;;;;1999.90;999.90;;;8.20;99.90;;;;;;5048767;28;20530;-73
2021/11/06 08:39:20;;;;;;;1999.90;999.90;;;8.30;99.90;;;;;;5050542;28;20779;-73
2021/11/06 08:41:49;;;;;;;1999.90;999.90;;;8.40;99.90;;;;;;5050435;28;20432;-73
2021/11/06 08:44:19;;;;;;;1999.90;999.90;;;8.40;99.90;;;;;;5049546;28;20452;-73
2021/11/06 08:46:47;;;;;;;1999.90;999.90;;;8.40;99.90;;;;;;5050292;28;20403;-73
2021/11/06 08:49:14;;;;;;;1999.90;999.90;;;8.50;99.90;;;;;;5050378;28;20498;-72
2021/11/06 08:51:54;;;;;;;1999.90;999.90;;;8.60;99.90;;;;;;5049735;28;20873;-73
2021/11/06 08:54:20;;;;;;;1999.90;999.90;;;8.60;99.90;;;;;;5049947;28;20398;-73
2021/11/06 08:56:48;;;;;;;1999.90;999.90;;;8.60;99.90;;;;;;5050325;28;20955;-73
2021/11/06 08:59:19;;;;;;;1999.90;999.90;;;8.70;99.90;;;;;;5049764;28;20410;-73
2021/11/06 09:01:46;;;;;;;1999.90;999.90;;;8.70;99.90;;;;;;5050217;28;20805;-73
2021/11/06 09:04:12;;;;;;;1999.90;999.90;;;8.70;99.90;;;;;;5049731;28;20419;-73
2021/11/06 09:06:39;;;;;;;1999.90;999.90;;;8.80;99.90;;;;;;5049866;28;20414;-73
2021/11/06 09:09:08;;;;;;;1999.90;999.90;;;8.90;99.90;;;;;;5053005;28;20433;-72
2021/11/06 09:11:36;;;;;;;1999.90;999.90;;;9.00;99.90;;;;;;5054207;28;20445;-74
2021/11/06 09:14:02;;;;;;;1999.90;999.90;;;9.00;99.90;;;;;;5053467;28;20402;-73
2021/11/06 09:16:28;;;;;;;1999.90;999.90;;;9.00;99.90;;;;;;5054303;28;20394;-73
2021/11/06 09:18:53;;;;;;;1999.90;999.90;;;9.10;99.90;;;;;;5054133;28;20422;-72
2021/11/06 09:21:20;;;;;;;1999.90;999.90;;;9.10;99.90;;;;;;5053803;28;20213;-73
2021/11/06 09:23:48;;;;;;;1999.90;999.90;;;9.20;99.90;;;;;;5053765;28;20168;-73
2021/11/06 09:26:15;;;;;;;1999.90;999.90;;;9.30;99.90;;;;;;5054081;28;20403;-73
2021/11/06 09:28:41;;;;;;;1999.90;999.90;;;9.40;99.90;;;;;;5053686;28;20761;-73
2021/11/06 09:31:12;;;;;;;1999.90;999.90;;;9.40;99.90;;;;;;5053899;28;20493;-73
2021/11/06 09:33:39;;;;;;;1999.90;999.90;;;9.50;99.90;;;;;;5053515;28;20482;-73
2021/11/06 09:36:05;;;;;;;1999.90;999.90;;;9.60;99.90;;;;;;5053610;28;20994;-73
2021/11/06 09:38:31;;;;;;;1999.90;999.90;;;9.70;99.90;;;;;;5053859;28;20971;-73
2021/11/06 09:41:07;;;;;;;1999.90;999.90;;;9.70;99.90;;;;;;5053853;28;20508;-73
2021/11/06 09:43:34;;;;;;;1999.90;999.90;;;9.70;99.90;;;;;;5053113;28;20403;-73
2021/11/06 09:46:00;;;;;;;1999.90;999.90;;;9.80;99.90;;;;;;5053734;28;20404;-73
2021/11/06 09:48:27;;;;;;;1999.90;999.90;;;9.90;99.90;;;;;;5053856;28;20412;-73
2021/11/06 09:50:58;;;;;;;1999.90;999.90;;;9.80;99.90;;;;;;5053158;28;20565;-73
2021/11/06 09:53:33;;;;;;;1999.90;999.90;;;9.90;99.90;;;;;;5053105;28;20442;-73
2021/11/06 09:55:59;;;;;;;1999.90;999.90;;;10.00;99.90;;;;;;5053654;28;20399;-73
2021/11/06 09:58:25;;;;;;;1999.90;999.90;;;10.10;99.90;;;;;;5053105;28;21130;-73
2021/11/06 10:00:51;;;;;;;1999.90;999.90;;;10.20;99.90;;;;;;5053376;28;20502;-73
2021/11/06 10:03:17;;;;;;;1999.90;999.90;;;10.20;99.90;;;;;;5053036;28;20171;-73
2021/11/06 10:05:46;;;;;;;1999.90;999.90;;;10.30;99.90;;;;;;5050827;28;20420;-74
2021/11/06 10:08:20;;;;;;;1999.90;999.90;;;10.40;99.90;;;;;;5053140;28;20936;-72
2021/11/06 10:10:49;;;;;;;1999.90;999.90;;;10.50;99.90;;;;;;5051978;28;20430;-73
2021/11/06 10:13:14;;;;;;;1999.90;999.90;;;10.70;99.90;;;;;;5051225;28;20993;-73
2021/11/06 10:15:47;;;;;;;1999.90;999.90;;;10.70;99.90;;;;;;5052515;28;20443;-73
2021/11/06 10:18:21;;;;;;;1999.90;999.90;;;10.80;99.90;;;;;;5059923;28;20401;-72
2021/11/06 10:20:50;;;;;;;1999.90;999.90;;;10.90;99.90;;;;;;5055868;28;20466;-71
2021/11/06 10:23:17;;;;;;;1999.90;999.90;;;11.00;99.90;;;;;;5059872;28;20429;-72
2021/11/06 10:25:43;;;;;;;1999.90;999.90;;;11.10;99.90;;;;;;5056108;28;20460;-71
2021/11/06 10:28:15;;;;;;;1999.90;999.90;;;11.20;99.90;;;;;;5051927;28;20978;-73
2021/11/06 10:30:43;;;;;;;1999.90;999.90;;;11.30;99.90;;;;;;5052256;28;20648;-72
2021/11/06 10:33:13;;;;;;;1999.90;999.90;;;11.40;99.90;;;;;;5051751;28;20460;-71
2021/11/06 10:35:45;;;;;;;1999.90;999.90;;;11.50;99.90;;;;;;5051936;28;20420;-72
2021/11/06 10:38:17;;;;;;;1999.90;999.90;;;11.50;99.90;;;;;;5052424;28;20397;-72
2021/11/06 10:40:59;;;;;;;1999.90;999.90;;;11.70;99.90;;;;;;5051088;28;20970;-72
2021/11/06 10:43:26;;;;;;;1999.90;999.90;;;11.70;99.90;;;;;;5051689;28;20765;-71
2021/11/06 10:46:01;;;;;;;1999.90;999.90;;;11.70;99.90;;;;;;5052885;28;20810;-73
2021/11/06 10:48:31;;;;;;;1999.90;999.90;;;11.70;99.90;;;;;;5052454;28;20499;-72
2021/11/06 10:51:05;;;;;;;1999.90;999.90;;;11.70;99.90;;;;;;5051577;28;20447;-72
2021/11/06 10:53:30;;;;;;;1999.90;999.90;;;11.80;99.90;;;;;;5051607;28;20460;-71
2021/11/06 10:55:57;;;;;;;1999.90;999.90;;;11.90;99.90;;;;;;5051815;28;20405;-70
2021/11/06 10:58:32;;;;;;;1999.90;999.90;;;12.00;99.90;;;;;;5051626;28;20220;-72
2021/11/06 11:01:04;;;;;;;1999.90;999.90;;;12.00;99.90;;;;;;5052259;28;20420;-74
2021/11/06 11:03:41;;;;;;;1999.90;999.90;;;12.00;99.90;;;;;;5051760;28;20421;-72
2021/11/06 11:06:16;;;;;;;1999.90;999.90;;;12.10;99.90;;;;;;5051029;28;20508;-73
2021/11/06 11:08:47;;;;;;;1999.90;999.90;;;12.30;99.90;;;;;;5051579;28;20413;-72
2021/11/06 11:11:18;;;;;;;1999.90;999.90;;;12.70;99.90;;;;;;5051598;28;20796;-72
2021/11/06 11:13:49;;;;;;;1999.90;999.90;;;13.10;99.90;;;;;;5050650;28;20894;-72
2021/11/06 11:16:16;;;;;;;1999.90;999.90;;;13.80;99.90;;;;;;5051585;28;20417;-73
2021/11/06 11:18:44;;;;;;;1999.90;999.90;;;14.50;99.90;;;;;;5051327;28;20814;-72
2021/11/06 11:21:17;;;;;;;1999.90;999.90;;;15.00;99.90;;;;;;5051317;28;20427;-73
2021/11/06 11:23:46;;;;;;;1999.90;999.90;;;15.30;99.90;;;;;;5051225;28;20409;-74
2021/11/06 11:26:14;;;;;;;1999.90;999.90;;;15.60;99.90;;;;;;5051489;28;20419;-72
2021/11/06 11:28:39;;;;;;;1999.90;999.90;;;15.70;99.90;;;;;;5051196;28;20437;-73
2021/11/06 11:31:06;;;;;;;1999.90;999.90;;;15.70;99.90;;;;;;5050511;28;21108;-73
2021/11/06 11:33:40;;;;;;;1999.90;999.90;;;15.90;99.90;;;;;;5050708;28;20849;-72
2021/11/06 11:36:09;;;;;;;1999.90;999.90;;;16.10;99.90;;;;;;5050884;28;20489;-73
2021/11/06 11:38:36;;;;;;;1999.90;999.90;;;16.40;99.90;;;;;;5051217;28;20422;-73
2021/11/06 11:41:23;;;;;;;1999.90;999.90;;;17.10;99.90;;;;;;5051332;28;20429;-73
2021/11/06 11:44:16;;;;;;;1999.90;999.90;;;17.60;99.90;;;;;;5049674;28;20419;-72
2021/11/06 11:46:48;;;;;;;1999.90;999.90;;;17.70;99.90;;;;;;5022520;28;20431;-72
2021/11/06 11:49:15;;;;;;;1999.90;999.90;;;17.60;99.90;;;;;;5031151;28;20403;-73
2021/11/06 11:51:40;;;;;;;1999.90;999.90;;;17.50;99.90;;;;;;5029997;28;20461;-73
2021/11/06 11:54:10;;;;;;;1999.90;999.90;;;17.20;99.90;;;;;;5031553;28;20487;-73
2021/11/06 11:56:37;;;;;;;1999.90;999.90;;;17.00;99.90;;;;;;5031321;28;20168;-75
2021/11/06 11:59:05;;;;;;;1999.90;999.90;;;17.00;99.90;;;;;;5031634;28;20426;-73
2021/11/06 12:01:31;;;;;;;1999.90;999.90;;;17.40;99.90;;;;;;5031425;28;20422;-73
2021/11/06 12:04:13;;;;;;;1999.90;999.90;;;17.60;99.90;;;;;;5030738;28;20401;-76